Aviation Digital Data Service (ADDS)

Output produced by METARs form (1502 UTC 22 April 2019)
found at http://www.aviationweather.gov/metar/data/
 
Forecast for: OMAL (AL AIN INTNL ARP, AE)
Text: TAF OMAL 221100Z 2212/2318 26010KT 8000 NSC
Forecast period: 1200 UTC 22 April 2019 to 0700 UTC 23 April 2019
Forecast type: FROM: standard forecast or significant change
Winds: from the W (260 degrees) at 12 MPH (10 knots; 5.1 m/s)
Visibility: 5 miles (8 km)
Ceiling: unknown
Clouds: missing
Weather: no significant weather forecast for this period
Text: BECMG 2307/2309 32016KT
Forecast period: 0700 to 1800 UTC 23 April 2019
Forecast type: BECOMING: Conditions expected to become as follows by 0900 UTC 23 April 2019
Winds: from the NW (320 degrees) at 18 MPH (16 knots; 8.2 m/s)
Visibility: 5 miles (8 km)
Ceiling: unknown
Clouds: missing
Weather: no significant weather forecast for this period